Time;durP1;ratioP1;P1;durP2;ratioP2;P2;SDS_P1;SDS_P2;PMS_P1;PMS_P2;Temp;Humidity;BMP_temperature;BMP_pressure;BME280_temperature;BME280_humidity;BME280_pressure;Samples;Min_cycle;Max_cycle;Signal;HPM_P1;HPM_P2
2023/09/30 00:01:44;;;;;;;14.07;6.43;;;16.40;99.90;;;;;;5073534;28;20021;-85
2023/09/30 00:04:09;;;;;;;11.43;7.05;;;15.90;99.90;;;;;;5073243;28;20052;-87
2023/09/30 00:06:35;;;;;;;11.15;7.05;;;16.00;99.90;;;;;;5071886;28;20021;-86
2023/09/30 00:09:01;;;;;;;19.83;7.35;;;15.90;99.90;;;;;;5073229;28;20048;-85
2023/09/30 00:11:27;;;;;;;11.18;7.57;;;15.80;99.90;;;;;;5073411;28;20029;-86
2023/09/30 00:13:54;;;;;;;8.85;7.05;;;16.40;99.90;;;;;;5073646;28;20052;-86
2023/09/30 00:16:19;;;;;;;15.02;7.22;;;16.30;99.90;;;;;;5072849;28;20031;-86
2023/09/30 00:18:45;;;;;;;12.13;7.57;;;15.80;99.90;;;;;;5069345;28;20034;-85
2023/09/30 00:21:11;;;;;;;13.80;8.27;;;15.80;99.90;;;;;;5067541;28;20024;-86
2023/09/30 00:23:37;;;;;;;19.52;8.30;;;15.60;99.90;;;;;;5052755;28;20032;-85
2023/09/30 00:26:02;;;;;;;11.93;7.82;;;15.80;99.90;;;;;;5060258;28;20091;-85
2023/09/30 00:28:28;;;;;;;9.13;7.95;;;15.80;99.90;;;;;;5071854;28;20040;-86
2023/09/30 00:30:54;;;;;;;12.88;8.52;;;15.70;99.90;;;;;;5072624;28;20021;-85
2023/09/30 00:33:19;;;;;;;13.32;8.35;;;15.70;99.90;;;;;;5073189;28;20041;-85
2023/09/30 00:35:46;;;;;;;14.95;8.85;;;15.70;99.90;;;;;;5071073;28;20036;-85
2023/09/30 00:38:11;;;;;;;15.85;7.80;;;15.70;99.90;;;;;;5072518;28;20024;-85
2023/09/30 00:40:37;;;;;;;14.35;8.23;;;15.60;99.90;;;;;;5072121;28;20021;-86
2023/09/30 00:43:03;;;;;;;16.23;8.57;;;15.60;99.90;;;;;;5073051;28;20024;-86
2023/09/30 00:45:29;;;;;;;18.95;8.25;;;15.90;99.90;;;;;;5074313;28;20032;-87
2023/09/30 00:47:55;;;;;;;15.60;9.30;;;16.10;99.90;;;;;;5072690;28;20021;-89
2023/09/30 00:50:21;;;;;;;12.63;8.30;;;15.80;99.90;;;;;;5073519;28;20074;-87
2023/09/30 00:52:48;;;;;;;13.00;8.55;;;15.70;99.90;;;;;;5073753;28;20068;-86
2023/09/30 00:55:15;;;;;;;14.73;8.20;;;16.70;99.90;;;;;;5073673;28;20483;-88
2023/09/30 00:57:41;;;;;;;15.95;9.60;;;15.70;99.90;;;;;;5073449;28;20020;-87
2023/09/30 01:00:11;;;;;;;13.07;8.88;;;15.60;99.90;;;;;;5073172;28;20020;-87
2023/09/30 01:02:48;;;;;;;;;;;15.50;99.90;;;;;;5072128;22;20048;-86
2023/09/30 01:05:16;;;;;;;14.45;7.82;;;15.50;99.90;;;;;;5030229;28;20357;-86
2023/09/30 01:08:02;;;;;;;16.83;8.90;;;16.90;99.90;;;;;;5033499;28;20079;-86
2023/09/30 01:10:28;;;;;;;12.38;8.55;;;15.50;99.90;;;;;;5033342;28;20505;-85
2023/09/30 01:13:10;;;;;;;15.73;9.13;;;15.90;99.90;;;;;;5034700;28;20067;-87
2023/09/30 01:15:42;;;;;;;12.85;9.00;;;15.50;99.90;;;;;;5033162;28;20021;-88
2023/09/30 01:18:16;;;;;;;12.57;8.52;;;16.70;99.90;;;;;;5032541;28;20030;-88
2023/09/30 01:20:52;;;;;;;12.73;8.27;;;15.60;99.90;;;;;;5031738;28;20028;-84
2023/09/30 01:23:17;;;;;;;20.65;9.50;;;15.50;99.90;;;;;;5031200;28;20025;-88
2023/09/30 01:25:44;;;;;;;17.58;8.95;;;16.00;99.90;;;;;;5030574;28;20025;-86
2023/09/30 01:28:10;;;;;;;14.10;9.13;;;16.40;99.90;;;;;;5031110;28;20577;-87
2023/09/30 01:30:51;;;;;;;14.75;8.82;;;16.80;99.90;;;;;;5090053;22;20053;-86
2023/09/30 01:33:32;;;;;;;13.48;8.65;;;15.60;99.90;;;;;;5031274;28;20034;-86
2023/09/30 01:35:59;;;;;;;12.57;9.05;;;15.50;99.90;;;;;;5013079;28;20022;-88
2023/09/30 01:38:32;;;;;;;16.75;9.02;;;16.80;99.90;;;;;;5012168;28;20026;-87
2023/09/30 01:40:57;;;;;;;14.93;9.82;;;15.50;99.90;;;;;;5015436;28;20109;-86
2023/09/30 01:43:41;;;;;;;17.15;11.00;;;15.60;99.90;;;;;;5027575;28;20083;-86
2023/09/30 01:46:07;;;;;;;17.42;11.75;;;15.60;99.90;;;;;;5035939;28;20029;-86
2023/09/30 01:48:32;;;;;;;19.17;14.13;;;16.40;99.90;;;;;;5035735;28;20366;-84
2023/09/30 01:50:58;;;;;;;24.75;13.57;;;15.60;99.90;;;;;;5035295;28;20026;-85
2023/09/30 01:53:23;;;;;;;21.25;12.60;;;16.00;99.90;;;;;;5034747;28;20084;-86
2023/09/30 01:55:49;;;;;;;21.65;11.80;;;16.80;99.90;;;;;;5035396;28;20028;-86
2023/09/30 01:58:14;;;;;;;22.15;11.25;;;16.20;99.90;;;;;;5035186;28;20041;-85
2023/09/30 02:00:40;;;;;;;15.45;11.05;;;16.30;99.90;;;;;;5035391;28;20221;-87
2023/09/30 02:03:07;;;;;;;13.82;10.80;;;16.10;99.90;;;;;;5034910;28;20132;-86
2023/09/30 02:05:38;;;;;;;19.92;10.57;;;16.40;99.90;;;;;;5035272;28;20552;-85
2023/09/30 02:08:18;;;;;;;16.75;10.45;;;15.50;99.90;;;;;;5035528;28;20413;-87
2023/09/30 02:10:43;;;;;;;16.20;10.57;;;15.50;99.90;;;;;;5035466;28;20029;-87
2023/09/30 02:13:09;;;;;;;21.38;10.80;;;16.40;99.90;;;;;;5034287;28;20076;-87
2023/09/30 02:15:43;;;;;;;16.73;9.70;;;16.00;99.90;;;;;;5036461;28;20032;-88
2023/09/30 02:18:09;;;;;;;13.80;8.85;;;16.70;99.90;;;;;;5035414;28;20029;-88
2023/09/30 02:20:47;;;;;;;14.13;9.63;;;16.40;99.90;;;;;;5035057;28;20123;-87
2023/09/30 02:23:15;;;;;;;15.50;8.98;;;16.50;99.90;;;;;;5035566;28;20428;-86
2023/09/30 02:25:43;;;;;;;17.92;8.63;;;15.40;99.90;;;;;;5034521;28;20072;-86
2023/09/30 02:28:08;;;;;;;14.25;8.43;;;16.60;99.90;;;;;;5034869;28;20033;-87
2023/09/30 02:30:34;;;;;;;13.88;10.00;;;16.20;99.90;;;;;;5034643;28;20092;-88
2023/09/30 02:33:19;;;;;;;13.73;10.07;;;16.70;99.90;;;;;;5034933;28;20037;-87
2023/09/30 02:35:45;;;;;;;16.55;9.30;;;15.30;99.90;;;;;;5035023;28;20384;-87
2023/09/30 02:38:15;;;;;;;15.02;9.73;;;16.40;99.90;;;;;;5034708;28;20033;-86
2023/09/30 02:40:58;;;;;;;14.48;9.18;;;15.40;99.90;;;;;;5032834;28;20029;-86
2023/09/30 02:43:24;;;;;;;16.00;10.30;;;15.40;99.90;;;;;;5034798;28;20127;-85
2023/09/30 02:45:50;;;;;;;13.75;9.77;;;15.90;99.90;;;;;;5076064;22;20061;-86
2023/09/30 02:48:16;;;;;;;16.52;10.55;;;16.00;99.90;;;;;;5013808;28;20481;-86
2023/09/30 02:50:44;;;;;;;10.70;9.02;;;15.40;99.90;;;;;;5013186;28;20026;-86
2023/09/30 02:53:11;;;;;;;17.25;10.13;;;15.90;99.90;;;;;;5014671;28;20116;-86
2023/09/30 02:55:36;;;;;;;15.48;10.15;;;16.50;99.90;;;;;;5014482;28;20045;-86
2023/09/30 02:58:02;;;;;;;19.17;9.90;;;16.20;99.90;;;;;;5017066;28;20022;-85
2023/09/30 03:00:32;;;;;;;17.30;10.32;;;15.40;99.90;;;;;;5014820;28;20036;-85
2023/09/30 03:03:00;;;;;;;12.43;10.25;;;15.40;99.90;;;;;;5014632;28;20018;-85
2023/09/30 03:05:27;;;;;;;16.33;10.05;;;15.40;99.90;;;;;;5014709;28;20041;-87
2023/09/30 03:07:52;;;;;;;16.80;10.68;;;16.50;99.90;;;;;;5015680;28;20447;-86
2023/09/30 03:10:23;;;;;;;12.80;10.25;;;15.30;99.90;;;;;;5016023;28;20025;-84
2023/09/30 03:12:50;;;;;;;17.73;10.90;;;15.30;99.90;;;;;;5017643;28;20418;-86
2023/09/30 03:15:16;;;;;;;17.58;10.00;;;15.30;99.90;;;;;;5018495;28;20026;-86
2023/09/30 03:17:43;;;;;;;18.67;10.00;;;15.60;99.90;;;;;;5020721;28;20036;-86
2023/09/30 03:20:13;;;;;;;15.30;10.50;;;15.30;99.90;;;;;;5017065;28;20034;-88
2023/09/30 03:22:40;;;;;;;;;;;15.30;99.90;;;;;;5016943;28;20026;-87
2023/09/30 03:25:07;;;;;;;17.08;9.68;;;15.30;99.90;;;;;;5013562;28;20396;-89
2023/09/30 03:27:33;;;;;;;16.67;10.27;;;15.30;99.90;;;;;;5014303;28;20080;-87
2023/09/30 03:30:01;;;;;;;13.07;9.68;;;15.30;99.90;;;;;;5013967;28;20466;-88
2023/09/30 03:32:26;;;;;;;20.10;10.93;;;15.30;99.90;;;;;;5014438;28;20046;-88
2023/09/30 03:34:52;;;;;;;22.35;11.10;;;15.30;99.90;;;;;;5013593;28;20040;-87
2023/09/30 03:37:18;;;;;;;14.23;9.23;;;15.30;99.90;;;;;;5014103;28;20516;-88
2023/09/30 03:39:43;;;;;;;15.68;10.05;;;15.30;99.90;;;;;;5013849;28;20022;-87
2023/09/30 03:42:11;;;;;;;15.25;10.07;;;15.40;99.90;;;;;;5014441;28;20462;-87
2023/09/30 03:44:38;;;;;;;13.88;9.20;;;16.20;99.90;;;;;;5013339;28;20066;-87
2023/09/30 03:47:04;;;;;;;13.15;8.63;;;15.30;99.90;;;;;;5014179;28;20026;-86
2023/09/30 03:49:30;;;;;;;14.70;8.85;;;15.50;99.90;;;;;;5013752;28;20117;-87
2023/09/30 03:51:55;;;;;;;15.65;9.52;;;15.30;99.90;;;;;;5013347;28;20465;-87
2023/09/30 03:54:21;;;;;;;11.57;9.10;;;15.30;99.90;;;;;;5013873;28;20489;-88
2023/09/30 03:56:47;;;;;;;14.57;9.93;;;15.20;99.90;;;;;;5013364;28;20030;-86
2023/09/30 03:59:13;;;;;;;15.93;10.10;;;15.30;99.90;;;;;;5012333;28;20114;-86
2023/09/30 04:01:40;;;;;;;13.98;9.98;;;15.20;99.90;;;;;;5013173;28;20046;-86
2023/09/30 04:04:07;;;;;;;15.00;10.02;;;15.30;99.90;;;;;;5013101;28;20085;-86
2023/09/30 04:06:32;;;;;;;17.30;10.88;;;15.30;99.90;;;;;;5013064;28;20061;-86
2023/09/30 04:08:59;;;;;;;15.45;9.90;;;15.40;99.90;;;;;;5013942;28;20033;-85
2023/09/30 04:11:25;;;;;;;16.30;10.65;;;15.30;99.90;;;;;;5014622;28;20026;-86
2023/09/30 04:13:50;;;;;;;17.75;10.43;;;16.00;99.90;;;;;;5011791;28;20088;-86
2023/09/30 04:16:18;;;;;;;15.77;10.70;;;15.20;99.90;;;;;;5013503;28;20030;-86
2023/09/30 04:18:44;;;;;;;16.05;11.05;;;15.30;99.90;;;;;;5012662;28;20030;-86
2023/09/30 04:21:09;;;;;;;20.90;12.20;;;15.30;99.90;;;;;;5011587;28;20430;-89
2023/09/30 04:23:38;;;;;;;21.92;11.57;;;15.30;99.90;;;;;;5010803;28;20109;-86
2023/09/30 04:26:05;;;;;;;16.52;12.18;;;15.40;99.90;;;;;;5010998;28;20496;-86
2023/09/30 04:28:30;;;;;;;20.88;11.82;;;15.30;99.90;;;;;;5011850;28;20037;-87
2023/09/30 04:30:56;;;;;;;16.10;12.05;;;15.20;99.90;;;;;;5008737;28;20026;-86
2023/09/30 04:33:24;;;;;;;17.63;12.27;;;15.20;99.90;;;;;;5003047;28;20081;-86
2023/09/30 04:35:50;;;;;;;22.77;13.15;;;15.20;99.90;;;;;;5006276;28;20030;-86
2023/09/30 04:38:15;;;;;;;21.35;13.73;;;15.20;99.90;;;;;;5009796;28;20026;-87
2023/09/30 04:40:43;;;;;;;18.65;12.98;;;15.20;99.90;;;;;;5012302;28;20362;-86
2023/09/30 04:43:09;;;;;;;18.63;13.55;;;15.10;99.90;;;;;;5013150;28;20037;-86
2023/09/30 04:45:34;;;;;;;20.70;12.68;;;15.00;99.90;;;;;;4998559;28;20042;-87
2023/09/30 04:48:02;;;;;;;14.18;11.63;;;15.00;99.90;;;;;;5012074;28;20052;-85
2023/09/30 04:50:30;;;;;;;21.90;12.88;;;15.90;99.90;;;;;;5013446;28;20096;-87
2023/09/30 04:52:56;;;;;;;19.45;11.80;;;15.00;99.90;;;;;;5012336;28;20034;-87
2023/09/30 04:55:33;;;;;;;20.92;12.55;;;16.10;99.90;;;;;;5012655;28;20045;-87
2023/09/30 04:57:59;;;;;;;13.15;11.00;;;16.00;99.90;;;;;;5012514;28;20037;-86
2023/09/30 05:00:25;;;;;;;17.50;12.27;;;15.80;99.90;;;;;;5034172;23;20045;-87
2023/09/30 05:02:54;;;;;;;15.07;12.30;;;15.00;99.90;;;;;;5031009;28;20025;-87
2023/09/30 05:05:20;;;;;;;18.87;12.20;;;15.20;99.90;;;;;;5032524;28;20021;-87
2023/09/30 05:07:47;;;;;;;11.95;10.75;;;15.00;99.90;;;;;;5031489;28;20413;-87
2023/09/30 05:10:15;;;;;;;17.08;11.07;;;15.00;99.90;;;;;;5031740;28;20025;-87
2023/09/30 05:12:47;;;;;;;18.33;12.43;;;15.10;99.90;;;;;;5030987;28;20095;-86
2023/09/30 05:15:15;;;;;;;14.00;11.40;;;15.00;99.90;;;;;;5036604;28;20102;-86
2023/09/30 05:17:43;;;;;;;17.90;11.77;;;14.90;99.90;;;;;;5037341;28;20037;-87
2023/09/30 05:20:10;;;;;;;20.25;12.68;;;15.00;99.90;;;;;;5037694;28;20033;-87
2023/09/30 05:22:36;;;;;;;14.18;10.93;;;15.00;99.90;;;;;;5037402;28;20033;-86
2023/09/30 05:25:02;;;;;;;18.90;11.27;;;15.00;99.90;;;;;;5037806;28;20014;-86
2023/09/30 05:27:27;;;;;;;19.88;11.85;;;15.00;99.90;;;;;;5037873;28;20034;-85
2023/09/30 05:29:53;;;;;;;17.45;12.23;;;15.10;99.90;;;;;;5035937;28;20045;-86
2023/09/30 05:32:19;;;;;;;16.35;12.30;;;15.10;99.90;;;;;;5037504;28;20033;-84
2023/09/30 05:34:45;;;;;;;17.90;12.10;;;15.00;99.90;;;;;;5037745;28;20079;-85
2023/09/30 05:37:12;;;;;;;19.52;12.43;;;14.90;99.90;;;;;;5044682;28;20029;-85
2023/09/30 05:39:38;;;;;;;18.50;12.35;;;15.00;99.90;;;;;;5055151;28;20500;-85
2023/09/30 05:42:03;;;;;;;23.00;12.55;;;15.30;99.90;;;;;;5044241;28;20037;-85
2023/09/30 05:44:29;;;;;;;23.42;12.02;;;14.90;99.90;;;;;;5045430;28;20087;-84
2023/09/30 05:46:55;;;;;;;14.27;11.70;;;14.90;99.90;;;;;;5041853;28;20055;-85
2023/09/30 05:49:20;;;;;;;21.13;11.75;;;14.80;99.90;;;;;;5037394;28;20029;-85
2023/09/30 05:51:46;;;;;;;15.30;11.40;;;15.70;99.90;;;;;;5049233;28;20077;-84
2023/09/30 05:54:12;;;;;;;25.83;11.95;;;15.50;99.90;;;;;;5056075;28;20411;-85
2023/09/30 05:56:38;;;;;;;16.30;11.82;;;15.30;99.90;;;;;;5050805;28;20018;-85
2023/09/30 05:59:07;;;;;;;16.23;11.57;;;14.80;99.90;;;;;;5049764;28;20080;-85
2023/09/30 06:01:32;;;;;;;21.20;12.13;;;15.30;99.90;;;;;;5045933;28;20056;-85
2023/09/30 06:04:00;;;;;;;20.17;12.05;;;15.00;99.90;;;;;;5045124;28;20023;-86
2023/09/30 06:06:28;;;;;;;16.38;10.25;;;14.70;99.90;;;;;;5045911;28;20017;-85
2023/09/30 06:08:54;;;;;;;21.30;12.23;;;14.70;99.90;;;;;;5048558;28;20053;-87
2023/09/30 06:11:24;;;;;;;26.67;12.25;;;15.10;99.90;;;;;;5044726;28;20080;-86
2023/09/30 06:13:54;;;;;;;14.68;11.50;;;14.80;99.90;;;;;;5046579;28;20037;-85
2023/09/30 06:16:20;;;;;;;17.77;12.05;;;14.80;99.90;;;;;;5047605;28;20025;-85
2023/09/30 06:18:46;;;;;;;17.70;13.15;;;14.80;99.90;;;;;;5048398;28;20469;-84
2023/09/30 06:21:17;;;;;;;19.90;12.68;;;14.70;99.90;;;;;;5048749;28;20036;-85
2023/09/30 06:23:43;;;;;;;18.73;12.20;;;14.70;99.90;;;;;;5040844;28;20037;-86
2023/09/30 06:26:09;;;;;;;14.55;11.32;;;14.70;99.90;;;;;;5039872;28;20033;-85
2023/09/30 06:28:40;;;;;;;17.75;12.25;;;14.80;99.90;;;;;;5040250;28;20056;-84
2023/09/30 06:31:07;;;;;;;19.98;12.50;;;14.90;99.90;;;;;;5037499;28;20470;-86
2023/09/30 06:33:43;;;;;;;16.67;11.63;;;15.50;99.90;;;;;;5034404;28;20052;-86
2023/09/30 06:36:17;;;;;;;19.40;13.27;;;15.60;99.90;;;;;;5038075;28;20037;-86
2023/09/30 06:38:44;;;;;;;18.33;12.40;;;15.80;99.90;;;;;;5043816;28;20433;-85
2023/09/30 06:41:16;;;;;;;17.55;12.90;;;14.60;99.90;;;;;;5044210;28;20017;-85
2023/09/30 06:43:42;;;;;;;18.50;13.13;;;16.10;99.90;;;;;;5038587;28;20125;-86
2023/09/30 06:46:12;;;;;;;28.48;13.75;;;15.50;99.90;;;;;;5044498;28;20075;-85
2023/09/30 06:48:42;;;;;;;19.58;13.10;;;15.60;99.90;;;;;;5034337;28;20036;-86
2023/09/30 06:51:15;;;;;;;22.77;14.13;;;14.90;99.90;;;;;;5045791;28;20036;-86
2023/09/30 06:53:40;;;;;;;19.95;13.07;;;14.90;99.90;;;;;;5037102;28;20097;-86
2023/09/30 06:56:08;;;;;;;21.20;14.00;;;14.90;99.90;;;;;;5040574;28;20448;-87
2023/09/30 06:58:33;;;;;;;18.48;14.13;;;14.80;99.90;;;;;;5036295;28;20044;-86
2023/09/30 07:00:59;;;;;;;16.38;13.60;;;14.90;99.90;;;;;;5038295;28;20044;-87
2023/09/30 07:03:25;;;;;;;22.52;13.25;;;15.20;99.90;;;;;;5034623;28;20026;-87
2023/09/30 07:05:51;;;;;;;21.13;13.25;;;15.40;99.90;;;;;;5038255;28;20033;-85
2023/09/30 07:08:17;;;;;;;16.75;12.73;;;14.90;99.90;;;;;;5039497;28;20061;-87
2023/09/30 07:10:44;;;;;;;17.75;13.57;;;15.60;99.90;;;;;;5032798;28;20029;-86
2023/09/30 07:13:10;;;;;;;21.48;13.85;;;14.90;99.90;;;;;;5033616;28;20040;-83
2023/09/30 07:15:36;;;;;;;25.45;13.30;;;14.90;99.90;;;;;;5036024;28;20100;-84
2023/09/30 07:18:03;;;;;;;18.02;13.25;;;15.00;99.90;;;;;;5036492;28;20053;-84
2023/09/30 07:20:32;;;;;;;20.42;13.40;;;14.90;99.90;;;;;;5038431;28;20022;-83
2023/09/30 07:23:01;;;;;;;16.58;13.73;;;14.90;99.90;;;;;;5034112;28;20068;-84
2023/09/30 07:25:27;;;;;;;24.00;14.75;;;15.00;99.90;;;;;;5034135;28;20502;-83
2023/09/30 07:27:52;;;;;;;24.05;13.70;;;15.40;99.90;;;;;;5031421;28;20525;-84
2023/09/30 07:30:18;;;;;;;22.33;14.27;;;15.20;99.90;;;;;;5030248;28;20116;-82
2023/09/30 07:32:45;;;;;;;29.63;15.90;;;15.10;99.90;;;;;;5033946;28;20075;-82
2023/09/30 07:35:15;;;;;;;25.45;14.77;;;15.10;99.90;;;;;;5031834;28;20025;-82
2023/09/30 07:37:41;;;;;;;23.42;14.15;;;15.10;99.90;;;;;;5029038;28;20484;-83
2023/09/30 07:40:08;;;;;;;27.65;15.25;;;15.10;99.90;;;;;;5047776;28;20030;-83
2023/09/30 07:42:34;;;;;;;26.88;16.55;;;15.10;99.90;;;;;;5028277;28;20036;-85
2023/09/30 07:45:00;;;;;;;32.38;14.98;;;15.10;99.90;;;;;;5030250;28;20030;-83
2023/09/30 07:47:26;;;;;;;25.63;13.95;;;15.10;99.90;;;;;;5026923;28;20026;-83
2023/09/30 07:49:51;;;;;;;20.88;15.02;;;15.20;99.90;;;;;;5011031;28;20546;-86
2023/09/30 07:52:17;;;;;;;28.33;15.63;;;15.10;99.90;;;;;;5017216;28;20072;-85
2023/09/30 07:54:43;;;;;;;28.48;15.88;;;15.50;99.90;;;;;;5030953;28;20029;-85
2023/09/30 07:57:08;;;;;;;23.55;14.48;;;15.20;99.90;;;;;;5030949;28;20480;-86
2023/09/30 07:59:34;;;;;;;26.40;16.30;;;15.30;99.90;;;;;;5032091;28;20056;-85
2023/09/30 08:02:01;;;;;;;22.88;16.50;;;15.30;99.90;;;;;;5031526;28;20060;-87
2023/09/30 08:04:27;;;;;;;28.77;15.55;;;15.40;99.90;;;;;;5031009;28;20029;-87
2023/09/30 08:06:55;;;;;;;22.13;15.05;;;15.40;99.90;;;;;;5031271;28;20029;-85
2023/09/30 08:09:23;;;;;;;26.92;16.05;;;15.40;99.90;;;;;;5031152;28;20112;-87
2023/09/30 08:11:50;;;;;;;26.38;16.05;;;16.80;99.90;;;;;;5031293;28;20033;-87
2023/09/30 08:14:16;;;;;;;25.45;15.40;;;15.50;99.90;;;;;;5030666;28;20041;-84
2023/09/30 08:16:53;;;;;;;21.42;14.93;;;16.60;99.90;;;;;;5033214;28;20041;-87
2023/09/30 08:19:20;;;;;;;26.25;15.73;;;15.50;99.90;;;;;;5033550;28;20493;-89
2023/09/30 08:21:46;;;;;;;27.80;15.85;;;16.80;99.90;;;;;;5033793;28;20385;-86
2023/09/30 08:24:14;;;;;;;25.50;15.25;;;16.10;99.90;;;;;;5034770;28;20030;-90
2023/09/30 08:26:39;;;;;;;29.42;16.75;;;15.60;99.90;;;;;;5033898;28;20025;-87
2023/09/30 08:29:11;;;;;;;24.35;15.30;;;16.10;99.90;;;;;;5033181;28;20025;-88
2023/09/30 08:31:36;;;;;;;20.25;14.23;;;16.80;99.90;;;;;;5032787;28;20028;-88
2023/09/30 08:34:03;;;;;;;21.48;14.75;;;16.00;99.90;;;;;;5031925;28;20041;-87
2023/09/30 08:36:30;;;;;;;24.75;15.98;;;16.00;99.90;;;;;;5033401;28;20097;-87
2023/09/30 08:38:55;;;;;;;22.50;15.80;;;15.70;99.90;;;;;;5032064;28;20040;-87
2023/09/30 08:41:47;;;;;;;18.40;13.05;;;15.70;99.90;;;;;;5031527;28;20025;-90
2023/09/30 08:44:14;;;;;;;24.65;14.75;;;15.70;99.90;;;;;;5030718;28;20429;-90
2023/09/30 08:46:41;;;;;;;23.05;13.88;;;15.90;99.90;;;;;;5032984;28;20442;-86
2023/09/30 08:49:07;;;;;;;19.77;13.68;;;15.90;99.90;;;;;;5032207;28;20044;-86
2023/09/30 08:51:33;;;;;;;18.80;13.23;;;15.90;99.90;;;;;;5029656;28;20049;-90
2023/09/30 08:54:00;;;;;;;26.48;14.80;;;16.30;99.90;;;;;;5018618;28;20072;-87
2023/09/30 08:56:29;;;;;;;26.17;13.82;;;15.90;99.90;;;;;;5033225;28;20484;-89
2023/09/30 08:58:59;;;;;;;20.45;13.70;;;16.00;99.90;;;;;;5030215;28;20025;-87
2023/09/30 09:01:29;;;;;;;;;;;16.50;99.90;;;;;;5031913;28;20037;-88
2023/09/30 09:03:55;;;;;;;28.38;13.85;;;16.10;99.90;;;;;;5032654;28;19905;-88
2023/09/30 09:06:22;;;;;;;16.02;11.40;;;16.10;99.90;;;;;;5031918;28;20021;-89
2023/09/30 09:08:48;;;;;;;21.90;12.50;;;16.10;99.90;;;;;;5032172;28;20473;-88
2023/09/30 09:11:29;;;;;;;22.13;12.05;;;17.30;99.90;;;;;;5032360;28;20022;-88
2023/09/30 09:14:00;;;;;;;17.48;11.65;;;16.10;99.90;;;;;;5029689;28;20950;-89
2023/09/30 09:16:26;;;;;;;26.20;13.85;;;16.70;99.90;;;;;;5032667;28;20033;-89
2023/09/30 09:18:52;;;;;;;22.98;12.93;;;16.20;99.90;;;;;;5032358;28;20036;-89
2023/09/30 09:21:22;;;;;;;19.02;12.10;;;16.20;99.90;;;;;;5032103;28;20045;-87
2023/09/30 09:23:50;;;;;;;22.08;12.52;;;16.20;99.90;;;;;;5032105;28;20029;-88
2023/09/30 09:26:38;;;;;;;20.83;11.80;;;16.90;99.90;;;;;;5037205;28;20017;-93
2023/09/30 09:29:15;;;;;;;17.58;10.35;;;16.30;99.90;;;;;;5023987;28;20032;-88
2023/09/30 09:31:41;;;;;;;21.95;11.43;;;17.50;99.90;;;;;;5031466;28;20033;-86
2023/09/30 09:34:24;;;;;;;16.88;10.50;;;17.00;99.90;;;;;;5031914;28;20026;-86
2023/09/30 09:36:51;;;;;;;18.70;11.10;;;17.10;99.90;;;;;;5032480;28;20025;-86
2023/09/30 09:39:33;;;;;;;17.27;11.70;;;17.10;99.90;;;;;;5031665;28;20126;-86
2023/09/30 09:42:01;;;;;;;23.55;11.60;;;16.60;99.90;;;;;;5030770;28;20029;-85
2023/09/30 09:44:36;;;;;;;17.38;10.68;;;17.50;99.90;;;;;;5030633;28;20485;-86
2023/09/30 09:47:15;;;;;;;17.13;10.50;;;16.60;99.90;;;;;;5029287;28;20029;-85
2023/09/30 09:50:03;;;;;;;16.13;9.82;;;17.90;99.90;;;;;;5028681;28;20028;-85
2023/09/30 09:52:31;;;;;;;22.13;11.57;;;16.60;99.90;;;;;;5030089;28;20140;-86
2023/09/30 09:54:58;;;;;;;18.70;10.73;;;17.90;99.90;;;;;;5037621;28;20378;-86
2023/09/30 09:58:16;;;;;;;18.92;9.38;;;16.70;99.90;;;;;;5032941;28;20018;-86
2023/09/30 10:00:42;;;;;;;19.13;8.75;;;15.90;99.90;;;;;;5034234;28;20064;-88
2023/09/30 10:03:26;;;;;;;15.30;7.90;;;17.30;99.90;;;;;;5051462;28;20525;-87
2023/09/30 10:05:53;;;;;;;19.35;10.35;;;17.50;99.90;;;;;;5044839;28;20033;-87
2023/09/30 10:08:42;;;;;;;13.45;8.43;;;17.20;99.90;;;;;;5040754;28;20564;-86
2023/09/30 10:11:23;;;;;;;18.63;9.13;;;17.20;99.90;;;;;;5038980;28;20025;-86
2023/09/30 10:13:57;;;;;;;15.50;7.88;;;17.20;99.90;;;;;;5034888;28;20529;-85
2023/09/30 10:16:35;;;;;;;19.42;9.70;;;17.00;99.90;;;;;;5039400;28;20041;-87
2023/09/30 10:19:14;;;;;;;15.85;8.70;;;17.10;99.90;;;;;;5033455;28;20017;-86
2023/09/30 10:22:29;;;;;;;13.68;8.48;;;17.00;99.90;;;;;;5034002;28;20045;-85
2023/09/30 10:24:59;;;;;;;16.15;7.90;;;17.00;99.90;;;;;;5032585;28;20021;-86
2023/09/30 10:27:26;;;;;;;15.85;7.88;;;17.10;99.90;;;;;;5038718;28;20079;-88
2023/09/30 10:29:59;;;;;;;19.60;8.32;;;17.20;99.90;;;;;;5041650;28;20037;-87
2023/09/30 10:32:50;;;;;;;14.02;8.20;;;17.20;99.90;;;;;;5041426;28;20025;-86
2023/09/30 10:35:18;;;;;;;;;;;17.30;99.90;;;;;;5038190;28;20040;-85
2023/09/30 10:37:44;;;;;;;14.95;5.47;;;17.20;99.90;;;;;;5039802;28;19909;-87
2023/09/30 10:40:26;;;;;;;16.55;5.55;;;17.30;99.90;;;;;;5038646;28;20025;-89
2023/09/30 10:42:54;;;;;;;11.80;4.78;;;17.30;99.90;;;;;;5040802;28;20029;-86
2023/09/30 10:45:43;;;;;;;13.25;4.93;;;17.30;99.90;;;;;;5038477;28;20029;-86
2023/09/30 10:48:36;;;;;;;11.35;5.40;;;17.40;99.90;;;;;;5034563;28;20045;-84
2023/09/30 10:51:21;;;;;;;15.15;5.78;;;17.30;99.90;;;;;;5040755;28;20024;-85
2023/09/30 10:53:51;;;;;;;7.57;5.63;;;17.40;99.90;;;;;;5045778;28;20083;-88
2023/09/30 10:56:17;;;;;;;9.25;5.63;;;17.50;99.90;;;;;;5041404;28;20029;-87
2023/09/30 10:58:48;;;;;;;12.82;5.55;;;17.40;99.90;;;;;;5036058;28;20523;-87
2023/09/30 11:01:33;;;;;;;16.38;4.38;;;17.60;99.90;;;;;;5042003;28;20073;-86
2023/09/30 11:04:04;;;;;;;9.63;4.18;;;17.40;99.90;;;;;;5035894;28;20378;-87
2023/09/30 11:06:30;;;;;;;10.73;4.88;;;17.50;99.90;;;;;;5041585;28;20053;-86
2023/09/30 11:09:02;;;;;;;10.40;4.18;;;17.80;99.90;;;;;;5032207;28;20033;-86
2023/09/30 11:11:37;;;;;;;16.17;4.75;;;17.40;99.90;;;;;;5041064;28;20025;-86
2023/09/30 11:14:15;;;;;;;10.50;3.63;;;17.60;99.90;;;;;;5029515;28;20029;-88
2023/09/30 11:16:44;;;;;;;11.63;3.45;;;17.60;99.90;;;;;;5038840;28;20029;-88
2023/09/30 11:19:11;;;;;;;12.68;3.72;;;18.60;99.90;;;;;;5033726;28;20477;-88
2023/09/30 11:21:38;;;;;;;8.63;4.05;;;18.00;99.90;;;;;;5033598;28;20025;-89
2023/09/30 11:24:06;;;;;;;7.30;3.35;;;17.70;99.90;;;;;;5034228;28;20045;-88
2023/09/30 11:26:33;;;;;;;8.10;3.70;;;17.80;99.90;;;;;;5033079;28;20091;-88
2023/09/30 11:29:13;;;;;;;12.60;3.92;;;18.00;99.90;;;;;;5032694;28;20052;-88
2023/09/30 11:31:47;;;;;;;8.02;3.47;;;17.80;99.90;;;;;;5034311;28;20469;-88
2023/09/30 11:34:15;;;;;;;11.52;4.07;;;17.90;99.90;;;;;;5028890;28;20478;-86
2023/09/30 11:36:47;;;;;;;12.18;4.30;;;18.10;99.90;;;;;;5032835;28;20484;-86
2023/09/30 11:39:23;;;;;;;17.33;5.35;;;18.00;99.90;;;;;;5022736;28;20044;-86
2023/09/30 11:41:49;;;;;;;13.02;4.00;;;18.70;99.90;;;;;;5020885;28;20516;-88
2023/09/30 11:44:16;;;;;;;14.23;3.63;;;18.10;99.90;;;;;;5034018;28;20026;-90
2023/09/30 11:47:04;;;;;;;11.65;4.07;;;18.00;99.90;;;;;;5033542;28;20075;-88
2023/09/30 11:49:38;;;;;;;9.32;3.42;;;18.60;99.90;;;;;;5033203;28;20037;-89
2023/09/30 11:52:11;;;;;;;8.15;3.33;;;18.00;99.90;;;;;;5033159;28;20119;-89
2023/09/30 11:54:44;;;;;;;7.35;2.60;;;18.10;99.90;;;;;;5026072;28;20041;-90
2023/09/30 11:57:11;;;;;;;7.47;2.30;;;18.10;99.90;;;;;;5032001;28;20033;-90
2023/09/30 11:59:39;;;;;;;8.15;2.80;;;18.30;99.90;;;;;;5032279;28;20032;-89
2023/09/30 12:02:26;;;;;;;10.20;3.28;;;18.00;99.90;;;;;;5032558;28;20089;-89
2023/09/30 12:04:50;;;;;;;7.93;3.05;;;18.10;99.90;;;;;;5032943;28;20389;-89
2023/09/30 12:07:16;;;;;;;10.13;3.22;;;18.10;99.90;;;;;;5035982;28;20025;-89
2023/09/30 12:09:42;;;;;;;9.00;3.35;;;18.40;99.90;;;;;;5035523;28;20469;-89
2023/09/30 12:12:14;;;;;;;11.55;2.97;;;18.00;99.90;;;;;;5035034;28;20029;-90
2023/09/30 12:14:40;;;;;;;7.18;3.65;;;18.20;99.90;;;;;;5035443;28;20041;-90
2023/09/30 12:17:05;;;;;;;10.95;3.20;;;19.00;99.90;;;;;;5036204;28;20465;-89
2023/09/30 12:19:31;;;;;;;7.72;3.63;;;18.30;99.90;;;;;;5050415;28;20014;-90
2023/09/30 12:21:56;;;;;;;7.25;3.20;;;18.20;99.90;;;;;;5057027;28;20026;-90
2023/09/30 12:24:24;;;;;;;11.27;4.15;;;18.30;99.90;;;;;;5049910;28;20037;-90
2023/09/30 12:26:51;;;;;;;10.02;3.58;;;18.30;99.90;;;;;;5034645;28;20064;-89
2023/09/30 12:29:21;;;;;;;9.02;3.75;;;18.80;99.90;;;;;;5034164;28;20026;-90
2023/09/30 12:31:49;;;;;;;11.93;3.95;;;18.30;99.90;;;;;;5033060;28;20033;-90
2023/09/30 12:34:15;;;;;;;8.90;3.40;;;18.60;99.90;;;;;;5033502;28;20034;-88
2023/09/30 12:36:41;;;;;;;8.25;4.30;;;18.30;99.90;;;;;;5033594;28;20437;-89
2023/09/30 12:39:11;;;;;;;12.73;4.22;;;18.40;99.90;;;;;;5032903;28;20117;-89
2023/09/30 12:41:38;;;;;;;10.50;4.07;;;18.50;99.90;;;;;;5033382;28;20112;-89
2023/09/30 12:44:04;;;;;;;10.15;5.07;;;18.50;99.90;;;;;;5033121;28;20033;-90